Christina O — C6FN7 — position and weather

sailwx.info

Track history (hours):
 
Tides and Currents Weather Stations Pressure Air Temp Water Temp Dewpoint Dewpoint Depression Visibility Wind Speed Wind Dir Waves Ship Positions

Christina O

Operator: V Ships Leisure SAM

Last reported at 2017-Mar-25 10:06 UTC. Time now 2017-Mar-30 04:54 UTC.
Position N 05°27' E 100°21'.

Length 186 m; draft 6.1 m.

Type: Passenger vessel. MMSI: 308322000.

Date/timePositionNaut miles runAvg speedWind from/ knotsBaromVisibWave heightAir tempDewpointWater temp
2017-Mar-25 10:06N 05°27' E 100°21'2 3.7
2017-Mar-25 09:32N 05°25' E 100°21'0 0.0
2017-Mar-25 08:26N 05°25' E 100°21'0 0.1
2017-Mar-25 07:20N 05°25' E 100°21'0 0.1
2017-Mar-25 06:32N 05°25' E 100°21'0 0.0
2017-Mar-25 05:26N 05°25' E 100°21'0 0.0
2017-Mar-25 04:20N 05°25' E 100°21'0 0.1
2017-Mar-25 03:32N 05°25' E 100°21'0 0.0
2017-Mar-25 02:26N 05°25' E 100°21'0 0.1
2017-Mar-25 01:32N 05°25' E 100°21'0 0.0
2017-Mar-25 00:32N 05°25' E 100°21'0 0.0
2017-Mar-24 23:33N 05°25' E 100°21'9 9.3
2017-Mar-24 22:33N 05°33' E 100°16'1411.0
2017-Mar-24 21:15N 05°26' E 100°03'238 8.5
2017-Mar-23 17:11N 02°03' E 102°09'1414.4
2017-Mar-23 16:15N 01°55' E 102°20'1116.3
2017-Mar-23 15:33N 01°51' E 102°30'1716.3
2017-Mar-23 14:32N 01°44' E 102°45'4816.2
2017-Mar-23 11:33N 01°15' E 103°24'1616.0
2017-Mar-23 10:34N 01°11' E 103°40'8 8.1
2017-Mar-23 09:33N 01°14' E 103°47'3 2.2
2017-Mar-23 08:14N 01°16' E 103°49'0 0.0
2017-Mar-23 07:32N 01°16' E 103°49'0 0.0
2017-Mar-23 06:32N 01°16' E 103°49'0 0.0
2017-Mar-23 05:32N 01°16' E 103°49'0 0.0
2017-Mar-23 04:23N 01°16' E 103°49'0 0.0
2017-Mar-23 03:26N 01°16' E 103°49'0 0.0
2017-Mar-23 02:32N 01°16' E 103°49'0 0.0
2017-Mar-23 01:32N 01°16' E 103°49'0 0.0
2017-Mar-23 00:29N 01°16' E 103°49'0 0.0
2017-Mar-22 23:29N 01°16' E 103°49'0 0.0
2017-Mar-22 22:32N 01°16' E 103°49'0 0.0
2017-Mar-22 21:29N 01°16' E 103°49'0 0.0
2017-Mar-22 20:29N 01°16' E 103°49'0 0.0
2017-Mar-22 19:32N 01°16' E 103°49'0 0.0
2017-Mar-22 18:32N 01°16' E 103°49'0 0.0
2017-Mar-22 17:32N 01°16' E 103°49'0 0.0
2017-Mar-22 16:29N 01°16' E 103°49'0 0.0
2017-Mar-22 15:32N 01°16' E 103°49'0 0.0
2017-Mar-22 14:32N 01°16' E 103°49'0 0.0
2017-Mar-22 13:20N 01°16' E 103°49'0 0.0
2017-Mar-22 12:23N 01°16' E 103°49'0 0.0
2017-Mar-22 11:32N 01°16' E 103°49'0 0.0
2017-Mar-22 10:32N 01°16' E 103°49'0 0.0
2017-Mar-22 09:32N 01°16' E 103°49'0 0.0
2017-Mar-22 08:32N 01°16' E 103°49'0 0.0
2017-Mar-22 07:32N 01°16' E 103°49'0 0.0
2017-Mar-22 06:29N 01°16' E 103°49'0 0.0
2017-Mar-22 05:32N 01°16' E 103°49'0 0.0
2017-Mar-22 04:32N 01°16' E 103°49'0 0.0
2017-Mar-22 03:29N 01°16' E 103°49'0 0.0
2017-Mar-22 02:26N 01°16' E 103°49'0 0.0
2017-Mar-22 01:32N 01°16' E 103°49'0 0.0
2017-Mar-22 00:26N 01°16' E 103°49'0 0.2
2017-Mar-21 23:33N 01°16' E 103°49'5 4.8
2017-Mar-21 22:34N 01°12' E 103°52'1313.1
2017-Mar-21 21:33N 01°16' E 104°05'1514.2
2017-Mar-21 20:30N 01°19' E 104°19'  
Track history (hours):
 
Tides and Currents Weather Stations Pressure Air Temp Water Temp Dewpoint Dewpoint Depression Visibility Wind Speed Wind Dir Waves Ship Positions

Christina O

Operator: V Ships Leisure SAM

Last reported at 2017-Mar-25 10:06 UTC. Time now 2017-Mar-30 04:54 UTC.
Position N 05°27' E 100°21'.

Length 186 m; draft 6.1 m.

Type: Passenger vessel. MMSI: 308322000.

Date/timePositionNaut miles runAvg speedWind from/ knotsBaromVisibWave heightAir tempDewpointWater temp
2017-Mar-25 10:06N 05°27' E 100°21'2 3.7
2017-Mar-25 09:32N 05°25' E 100°21'0 0.0
2017-Mar-25 08:26N 05°25' E 100°21'0 0.1
2017-Mar-25 07:20N 05°25' E 100°21'0 0.1
2017-Mar-25 06:32N 05°25' E 100°21'0 0.0
2017-Mar-25 05:26N 05°25' E 100°21'0 0.0
2017-Mar-25 04:20N 05°25' E 100°21'0 0.1
2017-Mar-25 03:32N 05°25' E 100°21'0 0.0
2017-Mar-25 02:26N 05°25' E 100°21'0 0.1
2017-Mar-25 01:32N 05°25' E 100°21'0 0.0
2017-Mar-25 00:32N 05°25' E 100°21'0 0.0
2017-Mar-24 23:33N 05°25' E 100°21'9 9.3
2017-Mar-24 22:33N 05°33' E 100°16'1411.0
2017-Mar-24 21:15N 05°26' E 100°03'238 8.5
2017-Mar-23 17:11N 02°03' E 102°09'1414.4
2017-Mar-23 16:15N 01°55' E 102°20'1116.3
2017-Mar-23 15:33N 01°51' E 102°30'1716.3
2017-Mar-23 14:32N 01°44' E 102°45'4816.2
2017-Mar-23 11:33N 01°15' E 103°24'1616.0
2017-Mar-23 10:34N 01°11' E 103°40'8 8.1
2017-Mar-23 09:33N 01°14' E 103°47'3 2.2
2017-Mar-23 08:14N 01°16' E 103°49'0 0.0
2017-Mar-23 07:32N 01°16' E 103°49'0 0.0
2017-Mar-23 06:32N 01°16' E 103°49'0 0.0
2017-Mar-23 05:32N 01°16' E 103°49'0 0.0
2017-Mar-23 04:23N 01°16' E 103°49'0 0.0
2017-Mar-23 03:26N 01°16' E 103°49'0 0.0
2017-Mar-23 02:32N 01°16' E 103°49'0 0.0
2017-Mar-23 01:32N 01°16' E 103°49'0 0.0
2017-Mar-23 00:29N 01°16' E 103°49'0 0.0
2017-Mar-22 23:29N 01°16' E 103°49'0 0.0
2017-Mar-22 22:32N 01°16' E 103°49'0 0.0
2017-Mar-22 21:29N 01°16' E 103°49'0 0.0
2017-Mar-22 20:29N 01°16' E 103°49'0 0.0
2017-Mar-22 19:32N 01°16' E 103°49'0 0.0
2017-Mar-22 18:32N 01°16' E 103°49'0 0.0
2017-Mar-22 17:32N 01°16' E 103°49'0 0.0
2017-Mar-22 16:29N 01°16' E 103°49'0 0.0
2017-Mar-22 15:32N 01°16' E 103°49'0 0.0
2017-Mar-22 14:32N 01°16' E 103°49'0 0.0
2017-Mar-22 13:20N 01°16' E 103°49'0 0.0
2017-Mar-22 12:23N 01°16' E 103°49'0 0.0
2017-Mar-22 11:32N 01°16' E 103°49'0 0.0
2017-Mar-22 10:32N 01°16' E 103°49'0 0.0
2017-Mar-22 09:32N 01°16' E 103°49'0 0.0
2017-Mar-22 08:32N 01°16' E 103°49'0 0.0
2017-Mar-22 07:32N 01°16' E 103°49'0 0.0
2017-Mar-22 06:29N 01°16' E 103°49'0 0.0
2017-Mar-22 05:32N 01°16' E 103°49'0 0.0
2017-Mar-22 04:32N 01°16' E 103°49'0 0.0
2017-Mar-22 03:29N 01°16' E 103°49'0 0.0
2017-Mar-22 02:26N 01°16' E 103°49'0 0.0
2017-Mar-22 01:32N 01°16' E 103°49'0 0.0
2017-Mar-22 00:26N 01°16' E 103°49'0 0.2
2017-Mar-21 23:33N 01°16' E 103°49'5 4.8
2017-Mar-21 22:34N 01°12' E 103°52'1313.1
2017-Mar-21 21:33N 01°16' E 104°05'1514.2
2017-Mar-21 20:30N 01°19' E 104°19'  

Dump ship's entire track history